createdAt,value
2023-03-31T00:03:03.917Z,100.00
2023-03-31T00:06:58.870Z,100.00
2023-03-31T00:10:48.024Z,100.00
2023-03-31T00:14:37.375Z,100.00
2023-03-31T00:18:28.158Z,100.00
2023-03-31T00:22:18.132Z,100.00
2023-03-31T00:26:08.621Z,100.00
2023-03-31T00:29:58.547Z,100.00
2023-03-31T00:33:47.754Z,100.00
2023-03-31T00:37:37.988Z,100.00
2023-03-31T00:41:24.431Z,100.00
2023-03-31T00:45:07.812Z,100.00
2023-03-31T00:49:06.714Z,100.00
2023-03-31T00:52:57.476Z,100.00
2023-03-31T01:08:57.244Z,100.00
2023-03-31T01:12:45.002Z,100.00
2023-03-31T01:16:32.539Z,100.00
2023-03-31T01:20:22.829Z,100.00
2023-03-31T01:24:13.952Z,100.00
2023-03-31T01:36:55.827Z,100.00
2023-03-31T01:40:57.091Z,100.00
2023-03-31T01:44:58.423Z,100.00
2023-03-31T01:57:09.509Z,100.00
2023-03-31T02:01:07.612Z,100.00
2023-03-31T02:13:02.650Z,100.00
2023-03-31T02:16:51.928Z,100.00
2023-03-31T02:20:40.999Z,100.00
2023-03-31T02:24:30.049Z,100.00
2023-03-31T02:28:24.864Z,100.00
2023-03-31T02:32:26.008Z,100.00
2023-03-31T02:36:15.406Z,100.00
2023-03-31T02:40:06.161Z,100.00
2023-03-31T02:43:55.287Z,100.00
2023-03-31T03:00:22.810Z,100.00
2023-03-31T03:04:13.452Z,100.00
2023-03-31T03:08:26.657Z,100.00
2023-03-31T03:20:35.564Z,100.00
2023-03-31T03:24:24.957Z,100.00
2023-03-31T03:28:13.933Z,100.00
2023-03-31T03:32:03.037Z,100.00
2023-03-31T03:47:58.382Z,100.00
2023-03-31T03:51:46.040Z,100.00
2023-03-31T03:56:03.762Z,100.00
2023-03-31T03:59:52.604Z,100.00
2023-03-31T04:03:41.851Z,100.00
2023-03-31T04:07:29.572Z,100.00
2023-03-31T04:11:09.117Z,100.00
2023-03-31T04:14:47.911Z,100.00
2023-03-31T04:18:25.742Z,100.00
2023-03-31T04:21:34.998Z,100.00
2023-03-31T04:24:58.673Z,100.00
2023-03-31T04:28:47.622Z,100.00
2023-03-31T04:32:31.567Z,100.00
2023-03-31T04:35:20.745Z,100.00
2023-03-31T04:38:33.994Z,100.00
2023-03-31T04:41:45.691Z,100.00
2023-03-31T04:45:14.518Z,100.00
2023-03-31T04:48:34.745Z,100.00
2023-03-31T04:51:53.175Z,100.00
2023-03-31T04:54:51.748Z,100.00
2023-03-31T04:58:24.982Z,100.00
2023-03-31T05:01:27.713Z,100.00
2023-03-31T05:04:26.763Z,100.00
2023-03-31T05:07:41.608Z,100.00
2023-03-31T05:11:20.723Z,100.00
2023-03-31T05:14:45.805Z,100.00
2023-03-31T05:18:05.018Z,100.00
2023-03-31T05:21:48.469Z,100.00
2023-03-31T05:25:27.572Z,100.00
2023-03-31T05:29:17.585Z,100.00
2023-03-31T05:32:54.218Z,100.00
2023-03-31T06:01:42.797Z,100.00
2023-03-31T06:05:08.259Z,100.00
2023-03-31T06:08:01.342Z,100.00
2023-03-31T06:11:38.998Z,100.00
2023-03-31T06:15:27.025Z,100.00
2023-03-31T06:19:14.984Z,100.00
2023-03-31T06:23:01.697Z,100.00
2023-03-31T06:26:50.272Z,100.00
2023-03-31T06:30:37.911Z,100.00
2023-03-31T06:34:14.214Z,100.00
2023-03-31T06:37:56.992Z,100.00
2023-03-31T06:40:43.832Z,100.00
2023-03-31T06:43:23.415Z,100.00
2023-03-31T06:46:03.758Z,100.00
2023-03-31T06:49:36.217Z,100.00
2023-03-31T06:53:03.413Z,100.00
2023-03-31T06:56:33.008Z,100.00
2023-03-31T07:00:22.361Z,100.00
2023-03-31T07:04:10.934Z,99.73
2023-03-31T07:07:38.490Z,99.16
2023-03-31T07:11:26.512Z,99.97
2023-03-31T07:14:53.852Z,99.35
2023-03-31T07:18:42.485Z,98.61
2023-03-31T07:36:44.763Z,97.67
2023-03-31T07:40:24.423Z,96.06
2023-03-31T07:43:15.928Z,95.85
2023-03-31T07:46:03.339Z,94.77
2023-03-31T07:48:37.551Z,95.93
2023-03-31T07:52:08.829Z,96.30
2023-03-31T07:55:57.935Z,96.38
2023-03-31T07:59:47.054Z,95.09
2023-03-31T08:03:09.665Z,93.88
2023-03-31T08:06:48.871Z,94.21
2023-03-31T08:10:17.028Z,92.76
2023-03-31T08:13:37.230Z,91.55
2023-03-31T08:17:15.348Z,90.81
2023-03-31T08:21:02.133Z,91.32
2023-03-31T08:35:29.505Z,82.83
2023-03-31T08:39:07.443Z,85.19
2023-03-31T08:42:42.312Z,85.13
2023-03-31T08:45:56.491Z,84.97
2023-03-31T08:49:01.371Z,84.37
2023-03-31T08:52:39.336Z,83.31
2023-03-31T08:56:24.414Z,83.87
2023-03-31T08:59:55.780Z,80.64
2023-03-31T09:03:22.864Z,79.37
2023-03-31T09:06:56.831Z,79.04
2023-03-31T09:25:13.762Z,79.30
2023-03-31T09:28:41.247Z,75.34
2023-03-31T09:32:09.233Z,75.63
2023-03-31T09:35:58.494Z,74.91
2023-03-31T09:39:21.619Z,76.62
2023-03-31T09:42:07.458Z,75.78
2023-03-31T09:45:01.139Z,75.76
2023-03-31T09:47:46.357Z,74.36
2023-03-31T09:51:37.901Z,75.00
2023-03-31T09:55:07.801Z,74.14
2023-03-31T09:58:35.806Z,72.04
2023-03-31T10:12:09.663Z,69.85
2023-03-31T10:30:23.795Z,69.36
2023-03-31T10:34:13.149Z,68.94
2023-03-31T10:37:41.758Z,69.82
2023-03-31T10:41:16.527Z,69.59
2023-03-31T10:59:08.412Z,74.14
2023-03-31T11:07:14.396Z,67.55
2023-03-31T11:10:25.967Z,68.65
2023-03-31T11:14:28.731Z,67.94
2023-03-31T11:38:00.758Z,53.07
2023-03-31T11:41:37.180Z,55.17
2023-03-31T11:45:23.364Z,55.71
2023-03-31T11:49:16.808Z,55.48
2023-03-31T12:03:53.622Z,45.21
2023-03-31T12:07:35.838Z,42.39
2023-03-31T12:10:52.927Z,43.87
2023-03-31T12:14:34.314Z,45.12
2023-03-31T12:17:55.273Z,47.10
2023-03-31T12:21:29.708Z,47.10
2023-03-31T12:25:02.421Z,46.95
2023-03-31T12:28:34.309Z,48.52
2023-03-31T12:32:03.164Z,50.43
2023-03-31T12:51:30.921Z,58.45
2023-03-31T12:55:17.987Z,57.84
2023-03-31T12:59:25.748Z,57.37
2023-03-31T13:03:04.507Z,58.05
2023-03-31T13:07:31.576Z,58.94
2023-03-31T13:11:32.577Z,59.79
2023-03-31T13:19:16.497Z,62.76
2023-03-31T13:37:51.021Z,74.47
2023-03-31T13:41:31.633Z,77.11
2023-03-31T13:45:11.622Z,78.00
2023-03-31T13:52:00.598Z,78.03
2023-03-31T13:55:18.792Z,76.95
2023-03-31T13:59:05.950Z,75.33
2023-03-31T14:14:31.794Z,73.71
2023-03-31T14:17:52.023Z,74.04
2023-03-31T14:21:30.100Z,74.14
2023-03-31T14:25:17.503Z,73.77
2023-03-31T14:28:59.065Z,73.68
2023-03-31T14:32:20.238Z,74.07
2023-03-31T14:35:08.697Z,73.68
2023-03-31T14:37:43.755Z,73.95
2023-03-31T14:54:57.470Z,73.23
2023-03-31T14:58:39.018Z,72.80
2023-03-31T15:02:21.483Z,73.97
2023-03-31T15:06:09.582Z,73.84
2023-03-31T15:09:32.216Z,74.29
2023-03-31T15:12:55.905Z,74.46
2023-03-31T15:16:21.661Z,73.99
2023-03-31T15:20:00.209Z,74.59
2023-03-31T15:24:04.128Z,74.85
2023-03-31T15:27:58.919Z,74.04
2023-03-31T15:45:35.949Z,71.59
2023-03-31T15:49:15.862Z,71.27
2023-03-31T15:52:05.247Z,70.93
2023-03-31T15:56:05.106Z,70.19
2023-03-31T15:59:56.419Z,71.01
2023-03-31T16:03:34.805Z,71.53
2023-03-31T16:07:04.201Z,71.71
2023-03-31T16:10:51.576Z,72.46
2023-03-31T16:25:42.932Z,75.24
2023-03-31T16:29:10.003Z,75.44
2023-03-31T16:32:53.513Z,76.08
2023-03-31T16:36:27.372Z,76.28
2023-03-31T16:39:48.271Z,76.14
2023-03-31T16:43:27.584Z,76.62
2023-03-31T16:47:17.512Z,77.59
2023-03-31T16:50:48.075Z,77.36
2023-03-31T16:54:36.020Z,77.58
2023-03-31T16:58:23.788Z,77.70
2023-03-31T17:02:14.062Z,77.37
2023-03-31T17:05:24.783Z,77.92
2023-03-31T17:08:39.794Z,78.07
2023-03-31T17:11:56.304Z,78.51
2023-03-31T17:15:41.854Z,79.44
2023-03-31T17:31:20.186Z,80.32
2023-03-31T17:35:09.462Z,80.01
2023-03-31T17:39:01.735Z,79.96
2023-03-31T17:50:57.152Z,78.10
2023-03-31T17:54:49.423Z,79.23
2023-03-31T18:06:55.789Z,78.87
2023-03-31T18:10:43.306Z,78.56
2023-03-31T18:14:31.283Z,79.30
2023-03-31T18:18:40.828Z,80.00
2023-03-31T18:22:30.041Z,80.54
2023-03-31T18:26:08.779Z,80.33
2023-03-31T18:29:58.112Z,80.53
2023-03-31T18:33:46.942Z,82.13
2023-03-31T18:37:37.303Z,83.32
2023-03-31T18:41:29.195Z,83.84
2023-03-31T19:00:52.552Z,85.85
2023-03-31T19:04:42.136Z,86.09
2023-03-31T19:08:31.082Z,85.89
2023-03-31T19:12:20.210Z,85.95
2023-03-31T19:16:10.402Z,86.14
2023-03-31T19:20:00.596Z,86.13
2023-03-31T19:46:52.830Z,100.00
2023-03-31T19:50:41.607Z,100.00
2023-03-31T19:54:30.073Z,100.00
2023-03-31T20:02:10.006Z,100.00
2023-03-31T20:05:21.921Z,100.00
2023-03-31T20:09:10.930Z,100.00
2023-03-31T20:12:54.391Z,100.00
2023-03-31T20:16:38.042Z,100.00
2023-03-31T20:20:26.145Z,100.00
2023-03-31T20:23:08.088Z,100.00
2023-03-31T20:26:36.849Z,100.00
2023-03-31T20:30:26.421Z,100.00
2023-03-31T20:34:15.376Z,100.00
2023-03-31T20:38:04.337Z,100.00
2023-03-31T20:41:53.430Z,100.00
2023-03-31T20:45:25.536Z,100.00
2023-03-31T20:49:14.293Z,100.00
2023-03-31T20:53:03.593Z,100.00
2023-03-31T20:56:53.397Z,100.00
2023-03-31T21:00:07.356Z,100.00
2023-03-31T21:03:56.601Z,100.00
2023-03-31T21:07:39.185Z,100.00
2023-03-31T21:11:29.154Z,100.00
2023-03-31T21:34:41.137Z,100.00
2023-03-31T21:38:30.341Z,100.00
2023-03-31T21:42:19.354Z,100.00
2023-03-31T21:46:08.674Z,100.00
2023-03-31T21:49:57.673Z,100.00
2023-03-31T21:53:46.645Z,100.00
2023-03-31T21:57:34.388Z,100.00
2023-03-31T22:01:23.577Z,100.00
2023-03-31T22:05:16.793Z,100.00
2023-03-31T22:08:52.140Z,100.00
2023-03-31T22:12:41.107Z,100.00
2023-03-31T22:16:30.322Z,100.00
2023-03-31T22:20:19.644Z,100.00
2023-03-31T22:24:08.817Z,100.00
2023-03-31T22:27:57.929Z,100.00
2023-03-31T22:31:48.984Z,100.00
2023-03-31T22:35:39.448Z,100.00
2023-03-31T22:39:09.006Z,100.00
2023-03-31T22:42:20.010Z,100.00
2023-03-31T22:46:09.664Z,100.00
2023-03-31T22:49:59.405Z,100.00
2023-03-31T22:53:29.204Z,100.00
2023-03-31T22:57:18.081Z,100.00
2023-03-31T23:01:07.514Z,100.00
2023-03-31T23:04:56.446Z,100.00
2023-03-31T23:08:45.906Z,100.00
2023-03-31T23:12:34.958Z,100.00
2023-03-31T23:16:24.032Z,100.00
2023-03-31T23:20:12.925Z,100.00
2023-03-31T23:24:01.904Z,100.00
2023-03-31T23:27:51.024Z,100.00
2023-03-31T23:31:40.376Z,100.00
2023-03-31T23:35:29.545Z,100.00
2023-03-31T23:39:18.904Z,100.00
2023-03-31T23:42:57.697Z,100.00
